Time;durP1;ratioP1;P1;durP2;ratioP2;P2;SDS_P1;SDS_P2;PMS_P1;PMS_P2;Temp;Humidity;BMP_temperature;BMP_pressure;BME280_temperature;BME280_humidity;BME280_pressure;Samples;Min_cycle;Max_cycle;Signal;HPM_P1;HPM_P2
2023/09/04 00:00:16;;;;;;;6.30;5.70;;;;;;;15.09;100.00;99819.80;109684;1250;59051;-71
2023/09/04 00:03:03;;;;;;;7.30;5.80;;;;;;;15.06;100.00;99820.95;109576;1251;62506;-71
2023/09/04 00:05:33;;;;;;;9.50;6.40;;;;;;;15.02;100.00;99823.00;109680;1250;59041;-71
2023/09/04 00:08:01;;;;;;;7.10;6.30;;;;;;;14.98;100.00;99823.14;109634;1250;65856;-71
2023/09/04 00:10:27;;;;;;;6.50;5.90;;;;;;;14.92;100.00;99823.88;109655;1250;60266;-71
2023/09/04 00:12:54;;;;;;;7.50;6.40;;;;;;;14.88;100.00;99824.55;109661;1250;65258;-71
2023/09/04 00:15:21;;;;;;;8.50;6.60;;;;;;;14.84;100.00;99830.38;109624;1251;59016;-71
2023/09/04 00:17:49;;;;;;;7.70;6.30;;;;;;;14.81;100.00;99826.52;109677;1250;58994;-71
2023/09/04 00:20:16;;;;;;;9.30;7.30;;;;;;;14.77;100.00;99823.39;109354;1251;66022;-71
2023/09/04 00:22:43;;;;;;;8.10;7.30;;;;;;;14.76;100.00;99826.53;109351;1251;60149;-71
2023/09/04 00:25:09;;;;;;;8.90;7.30;;;;;;;14.74;100.00;99826.12;109343;1250;59270;-71
2023/09/04 00:27:36;;;;;;;8.30;7.50;;;;;;;14.72;100.00;99828.94;109601;1250;59029;-71
2023/09/04 00:30:02;;;;;;;7.20;6.50;;;;;;;14.72;100.00;99831.79;109666;1250;58980;-71
2023/09/04 00:32:29;;;;;;;7.90;7.10;;;;;;;14.72;100.00;99834.98;109427;1251;66121;-71
2023/09/04 00:34:55;;;;;;;7.90;7.00;;;;;;;14.73;100.00;99835.83;109687;1250;58958;-71
2023/09/04 00:37:22;;;;;;;8.70;7.00;;;;;;;14.74;100.00;99839.30;109621;1251;59023;-71
2023/09/04 00:39:49;;;;;;;7.70;7.00;;;;;;;14.76;100.00;99846.50;109667;1251;58973;-71
2023/09/04 00:42:15;;;;;;;7.30;6.70;;;;;;;14.77;100.00;99849.32;109648;1250;59089;-71
2023/09/04 00:44:47;;;;;;;8.00;7.20;;;;;;;14.76;100.00;99855.84;109624;1250;64961;-71
2023/09/04 00:47:14;;;;;;;11.00;7.70;;;;;;;14.73;100.00;99863.16;109704;1250;59946;-71
2023/09/04 00:49:42;;;;;;;7.00;6.40;;;;;;;14.71;100.00;99862.75;109694;1250;62899;-71
2023/09/04 00:52:10;;;;;;;7.90;7.00;;;;;;;14.68;100.00;99864.61;109655;1250;58995;-71
2023/09/04 00:54:37;;;;;;;11.00;9.20;;;;;;;14.64;100.00;99866.70;109718;1250;59218;-71
2023/09/04 00:57:07;;;;;;;11.10;10.00;;;;;;;14.59;100.00;99868.47;109681;1250;65694;-71
2023/09/04 00:59:35;;;;;;;13.10;11.80;;;;;;;14.55;100.00;99866.45;109663;1250;60637;-71
2023/09/04 01:02:02;;;;;;;12.80;11.70;;;;;;;14.51;100.00;99863.64;109656;1250;65050;-71
2023/09/04 01:04:28;;;;;;;13.20;11.80;;;;;;;14.46;100.00;99865.71;109307;1251;59024;-71
2023/09/04 01:06:55;;;;;;;13.20;11.90;;;;;;;14.43;100.00;99866.69;109681;1250;58959;-71
2023/09/04 01:09:23;;;;;;;14.20;12.70;;;;;;;14.38;100.00;99868.25;109727;1250;66016;-71
2023/09/04 01:12:14;;;;;;;12.50;11.30;;;;;;;14.36;100.00;99868.98;109673;1250;60094;-71
2023/09/04 01:14:45;;;;;;;12.40;11.10;;;;;;;14.32;100.00;99869.56;109696;1250;63748;-71
2023/09/04 01:17:12;;;;;;;12.70;11.40;;;;;;;14.31;100.00;99868.94;109645;1250;58916;-71
2023/09/04 01:19:40;;;;;;;12.50;11.30;;;;;;;14.29;100.00;99871.23;109586;1251;58981;-71
2023/09/04 01:22:07;;;;;;;11.30;10.30;;;;;;;14.26;100.00;99876.40;109658;1251;66499;-71
2023/09/04 01:24:36;;;;;;;10.80;9.80;;;;;;;14.24;100.00;99879.25;109688;1250;60269;-71
2023/09/04 01:27:15;;;;;;;11.70;10.40;;;;;;;14.23;100.00;99883.43;109200;1251;73861;-71
2023/09/04 01:29:56;;;;;;;12.90;11.50;;;;;;;14.20;100.00;99881.45;109680;1250;58995;-71
2023/09/04 01:32:36;;;;;;;13.60;12.20;;;;;;;14.17;100.00;99885.80;109685;1250;59070;-71
2023/09/04 01:35:03;;;;;;;;;;;;;;;14.14;100.00;99891.16;109673;1250;66011;-71
2023/09/04 01:37:31;;;;;;;12.60;11.40;;;;;;;14.13;100.00;99895.39;109642;1250;59304;-71
2023/09/04 01:39:58;;;;;;;13.70;11.60;;;;;;;14.11;100.00;99894.44;109627;1250;64061;-71
2023/09/04 01:42:25;;;;;;;12.00;10.80;;;;;;;14.09;100.00;99892.75;109673;1250;58965;-71
2023/09/04 01:44:51;;;;;;;13.20;11.90;;;;;;;14.08;100.00;99891.41;109662;1250;59170;-71
2023/09/04 01:47:18;;;;;;;15.30;13.50;;;;;;;14.06;100.00;99888.48;109686;1250;66007;-71
2023/09/04 01:49:45;;;;;;;13.50;12.20;;;;;;;14.03;100.00;99892.79;109626;1250;59428;-71
2023/09/04 01:52:12;;;;;;;14.50;12.80;;;;;;;14.01;100.00;99891.35;109631;1250;64027;-71
2023/09/04 01:54:38;;;;;;;14.00;11.90;;;;;;;13.97;100.00;99894.08;109682;1250;59011;-70
2023/09/04 01:57:05;;;;;;;13.20;11.50;;;;;;;13.93;100.00;99893.83;109611;1250;58967;-71
2023/09/04 01:59:33;;;;;;;13.00;11.60;;;;;;;13.90;100.00;99895.65;109424;1250;59282;-71
2023/09/04 02:02:00;;;;;;;13.10;11.60;;;;;;;13.86;100.00;99898.40;109672;1250;69997;-71
2023/09/04 02:04:26;;;;;;;12.30;11.00;;;;;;;13.81;100.00;99900.66;109645;1250;63721;-71
2023/09/04 02:06:53;;;;;;;12.80;11.50;;;;;;;13.78;100.00;99906.79;109659;1250;58918;-71
2023/09/04 02:09:19;;;;;;;15.00;13.40;;;;;;;13.75;100.00;99906.81;109636;1250;58987;-71
2023/09/04 02:11:46;;;;;;;14.90;13.20;;;;;;;13.72;100.00;99906.30;109648;1250;58974;-71
2023/09/04 02:14:12;;;;;;;16.30;14.60;;;;;;;13.68;100.00;99907.42;109693;1250;58934;-71
2023/09/04 02:16:39;;;;;;;17.50;14.70;;;;;;;13.65;100.00;99914.09;109624;1250;59864;-69
2023/09/04 02:19:05;;;;;;;17.60;15.80;;;;;;;13.60;100.00;99913.99;109427;1251;59089;-71
2023/09/04 02:21:32;;;;;;;19.00;17.10;;;;;;;13.57;100.00;99916.86;109633;1250;59024;-70
2023/09/04 02:23:59;;;;;;;19.60;17.60;;;;;;;13.55;100.00;99913.11;109680;1250;66063;-70
2023/09/04 02:26:25;;;;;;;18.80;17.00;;;;;;;13.53;100.00;99913.05;109716;1250;58931;-70
2023/09/04 02:28:52;;;;;;;19.10;17.20;;;;;;;13.51;100.00;99912.45;109624;1250;64070;-70
2023/09/04 02:31:18;;;;;;;16.70;15.10;;;;;;;13.50;100.00;99911.98;109695;1250;58938;-70
2023/09/04 02:33:45;;;;;;;16.70;14.40;;;;;;;13.50;100.00;99915.02;109637;1250;59002;-70
2023/09/04 02:36:12;;;;;;;14.90;13.70;;;;;;;13.51;100.00;99915.18;109609;1250;66081;-70
2023/09/04 02:38:40;;;;;;;13.10;11.90;;;;;;;13.53;100.00;99913.08;109693;1250;59075;-70
2023/09/04 02:41:07;;;;;;;13.10;11.70;;;;;;;13.55;100.00;99907.94;109647;1250;63841;-70
2023/09/04 02:43:33;;;;;;;12.80;11.70;;;;;;;13.57;100.00;99907.23;109334;1251;59039;-70
2023/09/04 02:46:00;;;;;;;13.30;11.70;;;;;;;13.62;100.00;99906.95;109633;1250;58969;-70
2023/09/04 02:48:26;;;;;;;12.30;11.00;;;;;;;13.66;100.00;99908.14;109670;1250;65760;-70
2023/09/04 02:50:59;;;;;;;12.70;10.50;;;;;;;13.68;100.00;99911.77;109672;1250;59146;-70
2023/09/04 02:53:27;;;;;;;11.60;10.50;;;;;;;13.69;100.00;99907.91;109595;1250;73846;-70
2023/09/04 02:55:54;;;;;;;10.50;9.40;;;;;;;13.70;100.00;99906.05;109676;1250;59012;-70
2023/09/04 02:58:21;;;;;;;12.20;10.90;;;;;;;13.72;100.00;99906.67;109673;1250;59019;-70
2023/09/04 03:00:49;;;;;;;9.90;9.10;;;;;;;13.72;100.00;99906.98;109659;1250;66092;-70
2023/09/04 03:03:19;;;;;;;10.20;9.10;;;;;;;13.72;100.00;99910.92;109658;1250;60047;-70
2023/09/04 03:05:46;;;;;;;9.90;9.00;;;;;;;13.73;100.00;99920.51;109597;1250;62618;-71
2023/09/04 03:08:13;;;;;;;10.20;8.40;;;;;;;13.74;100.00;99924.70;109622;1250;58967;-70
2023/09/04 03:10:39;;;;;;;9.70;8.80;;;;;;;13.73;100.00;99923.52;109656;1250;58953;-70
2023/09/04 03:13:06;;;;;;;9.90;8.90;;;;;;;13.72;100.00;99923.63;109681;1250;64621;-71
2023/09/04 03:15:32;;;;;;;9.40;8.60;;;;;;;13.70;100.00;99927.28;109605;1250;60414;-70
2023/09/04 03:17:59;;;;;;;9.20;8.30;;;;;;;13.70;100.00;99930.02;109650;1250;59415;-70
2023/09/04 03:20:25;;;;;;;9.40;8.50;;;;;;;13.70;100.00;99931.46;109641;1250;58935;-70
2023/09/04 03:22:52;;;;;;;11.00;8.30;;;;;;;13.69;100.00;99930.61;109370;1251;59041;-70
2023/09/04 03:25:18;;;;;;;10.70;8.60;;;;;;;13.69;100.00;99931.15;109641;1250;58952;-70
2023/09/04 03:27:45;;;;;;;11.00;8.10;;;;;;;13.68;100.00;99927.41;109625;1250;60139;-71
2023/09/04 03:30:12;;;;;;;8.60;7.70;;;;;;;13.69;100.00;99927.54;109622;1250;64079;-71
2023/09/04 03:32:39;;;;;;;8.60;7.80;;;;;;;13.71;100.00;99922.63;109607;1250;58938;-71
2023/09/04 03:35:06;;;;;;;8.80;8.00;;;;;;;13.71;100.00;99928.14;109437;1255;58988;-71
2023/09/04 03:37:35;;;;;;;10.40;7.60;;;;;;;13.71;100.00;99926.19;109652;1250;64862;-71
2023/09/04 03:40:22;;;;;;;9.20;6.80;;;;;;;13.69;100.00;99925.41;109653;1250;60206;-71
2023/09/04 03:42:48;;;;;;;8.80;7.00;;;;;;;13.67;100.00;99928.92;109372;1251;63844;-71
2023/09/04 03:45:15;;;;;;;8.20;7.30;;;;;;;13.64;100.00;99938.23;109401;1251;58993;-71
2023/09/04 03:47:44;;;;;;;8.50;7.60;;;;;;;13.62;100.00;99941.93;109673;1250;58941;-71
2023/09/04 03:50:12;;;;;;;9.60;7.30;;;;;;;13.60;100.00;99938.48;109641;1250;65986;-71
2023/09/04 03:52:40;;;;;;;12.30;7.60;;;;;;;13.58;100.00;99939.70;109594;1250;59240;-71
2023/09/04 03:55:08;;;;;;;8.60;7.10;;;;;;;13.55;100.00;99936.84;109658;1250;63750;-70
2023/09/04 03:57:39;;;;;;;8.80;7.90;;;;;;;13.52;100.00;99932.37;109180;1251;59005;-70
2023/09/04 04:00:16;;;;;;;8.00;6.90;;;;;;;13.48;100.00;99929.61;109674;1250;59103;-70
2023/09/04 04:02:44;;;;;;;8.70;6.90;;;;;;;13.44;100.00;99929.02;109376;1250;64598;-71
2023/09/04 04:05:13;;;;;;;8.00;6.90;;;;;;;13.38;100.00;99931.84;109666;1250;60196;-71
2023/09/04 04:07:40;;;;;;;8.00;7.20;;;;;;;13.33;100.00;99935.77;109623;1250;62941;-70
2023/09/04 04:10:07;;;;;;;9.90;7.30;;;;;;;13.28;100.00;99935.00;109615;1250;58979;-71
2023/09/04 04:12:34;;;;;;;9.10;7.60;;;;;;;13.24;100.00;99937.74;109292;1251;58912;-70
2023/09/04 04:15:04;;;;;;;8.70;7.90;;;;;;;13.20;100.00;99941.34;109659;1250;65891;-71
2023/09/04 04:17:31;;;;;;;8.40;7.50;;;;;;;13.18;100.00;99955.17;109582;1250;59806;-71
2023/09/04 04:19:58;;;;;;;8.20;7.20;;;;;;;13.17;100.00;99961.84;109672;1250;62890;-70
2023/09/04 04:22:24;;;;;;;8.30;7.50;;;;;;;13.16;100.00;99961.91;109635;1250;58964;-70
2023/09/04 04:24:51;;;;;;;9.20;7.20;;;;;;;13.17;100.00;99970.98;109660;1250;59850;-70
2023/09/04 04:27:18;;;;;;;8.10;7.20;;;;;;;13.19;100.00;99976.02;109624;1250;65973;-70
2023/09/04 04:29:47;;;;;;;8.70;7.40;;;;;;;13.32;100.00;99979.17;109291;1250;60006;-71
2023/09/04 04:32:14;;;;;;;10.00;7.20;;;;;;;13.45;100.00;99976.60;109650;1250;63755;-70
2023/09/04 04:34:42;;;;;;;7.70;6.90;;;;;;;13.47;100.00;99979.52;109645;1250;58959;-70
2023/09/04 04:37:09;;;;;;;8.50;6.50;;;;;;;13.46;100.00;99982.04;109630;1250;59002;-71
2023/09/04 04:39:35;;;;;;;8.30;7.10;;;;;;;13.49;100.00;99984.72;109676;1250;66304;-71
2023/09/04 04:42:02;;;;;;;14.30;10.30;;;;;;;13.52;100.00;99981.50;109663;1250;59006;-71
2023/09/04 04:44:29;;;;;;;17.70;12.60;;;;;;;13.55;100.00;99982.22;109554;1251;64157;-70
2023/09/04 04:46:55;;;;;;;20.00;15.80;;;;;;;13.57;100.00;99987.59;109631;1250;58965;-70
2023/09/04 04:49:23;;;;;;;25.20;19.30;;;;;;;13.61;100.00;99995.56;109664;1250;58886;-70
2023/09/04 04:51:49;;;;;;;21.10;17.10;;;;;;;13.66;100.00;99997.91;109615;1250;67149;-70
2023/09/04 04:54:16;;;;;;;22.50;17.00;;;;;;;13.72;100.00;100003.97;109698;1250;59204;-70
2023/09/04 04:56:43;;;;;;;17.90;16.10;;;;;;;13.78;100.00;100006.44;109632;1250;64110;-70
2023/09/04 04:59:10;;;;;;;19.80;15.50;;;;;;;13.87;100.00;100015.51;109621;1250;58967;-70
2023/09/04 05:01:36;;;;;;;16.10;14.40;;;;;;;13.99;100.00;100017.80;109339;1251;59053;-70
2023/09/04 05:04:03;;;;;;;15.70;13.10;;;;;;;14.11;100.00;100023.63;109682;1250;65720;-70
2023/09/04 05:06:30;;;;;;;11.60;10.10;;;;;;;14.23;100.00;100020.83;109722;1251;59166;-70
2023/09/04 05:08:56;;;;;;;13.50;8.70;;;;;;;14.38;100.00;100019.16;109603;1250;64140;-70
2023/09/04 05:11:23;;;;;;;9.40;7.50;;;;;;;14.52;100.00;100018.64;109632;1250;59243;-70
2023/09/04 05:13:49;;;;;;;9.30;6.90;;;;;;;14.64;100.00;100022.98;109457;1256;59088;-71
2023/09/04 05:16:16;;;;;;;7.50;6.70;;;;;;;14.77;100.00;100028.52;109620;1250;59198;-71
2023/09/04 05:18:42;;;;;;;7.30;6.30;;;;;;;14.82;100.00;100035.20;109697;1250;59131;-70
2023/09/04 05:21:09;;;;;;;6.20;5.70;;;;;;;14.86;100.00;100036.90;109658;1250;59090;-71
2023/09/04 05:23:35;;;;;;;8.10;5.80;;;;;;;14.94;100.00;100032.03;109623;1250;58943;-71
2023/09/04 05:26:02;;;;;;;9.60;5.20;;;;;;;15.00;100.00;100027.89;109572;1251;58973;-71
2023/09/04 05:28:29;;;;;;;7.50;5.80;;;;;;;15.07;100.00;100029.02;109615;1250;64824;-71
2023/09/04 05:31:02;;;;;;;8.30;5.80;;;;;;;15.16;100.00;100025.55;109650;1250;59834;-71
2023/09/04 05:33:29;;;;;;;8.90;6.40;;;;;;;15.21;100.00;100023.22;109148;1251;64049;-71
2023/09/04 05:35:57;;;;;;;6.90;5.80;;;;;;;15.28;100.00;100024.34;109572;1250;58943;-71
2023/09/04 05:38:24;;;;;;;7.60;5.90;;;;;;;15.36;100.00;100022.31;109445;1251;59160;-70
2023/09/04 05:40:54;;;;;;;6.40;5.40;;;;;;;15.49;100.00;100026.80;109673;1250;64863;-71
2023/09/04 05:43:21;;;;;;;10.00;5.60;;;;;;;15.60;100.00;100027.98;109625;1250;59037;-71
2023/09/04 05:45:49;;;;;;;8.30;5.80;;;;;;;15.70;100.00;100033.02;109656;1250;64701;-71
2023/09/04 05:48:16;;;;;;;12.30;5.90;;;;;;;15.77;100.00;100040.05;109656;1250;59065;-71
2023/09/04 05:50:42;;;;;;;7.70;5.80;;;;;;;15.83;100.00;100042.52;109658;1250;59037;-71
2023/09/04 05:53:09;;;;;;;9.10;5.30;;;;;;;15.88;100.00;100044.33;109664;1250;65700;-71
2023/09/04 05:55:36;;;;;;;9.10;5.00;;;;;;;15.95;100.00;100045.91;109605;1250;59003;-71
2023/09/04 05:58:03;;;;;;;8.30;5.30;;;;;;;15.99;100.00;100044.92;109661;1250;64048;-71
2023/09/04 06:00:29;;;;;;;8.90;5.60;;;;;;;16.01;100.00;100038.85;109583;1250;58967;-70
2023/09/04 06:02:56;;;;;;;10.40;5.80;;;;;;;15.95;100.00;100041.66;109566;1252;58962;-71
2023/09/04 06:05:24;;;;;;;6.50;5.10;;;;;;;15.97;100.00;100040.39;109580;1251;66112;-71
2023/09/04 06:07:50;;;;;;;8.00;5.00;;;;;;;16.04;100.00;100037.91;109329;1254;59881;-71
2023/09/04 06:10:17;;;;;;;6.80;4.80;;;;;;;16.13;100.00;100034.61;109554;1252;64074;-70
2023/09/04 06:12:44;;;;;;;5.70;4.60;;;;;;;16.20;100.00;100034.44;109495;1252;59380;-71
2023/09/04 06:15:10;;;;;;;6.70;4.60;;;;;;;16.27;100.00;100027.98;109554;1252;58924;-71
2023/09/04 06:17:37;;;;;;;6.90;4.80;;;;;;;16.35;100.00;100023.62;109549;1252;66083;-75
2023/09/04 06:20:04;;;;;;;8.90;5.00;;;;;;;16.46;100.00;100023.92;109455;1253;60938;-71
2023/09/04 06:22:31;;;;;;;5.00;4.60;;;;;;;16.59;100.00;100022.38;109210;1254;63747;-70
2023/09/04 06:24:58;;;;;;;5.40;4.90;;;;;;;16.91;100.00;100020.84;109613;1252;58957;-70
2023/09/04 06:27:24;;;;;;;7.00;4.60;;;;;;;17.19;100.00;100020.48;109594;1252;59816;-71
2023/09/04 06:29:51;;;;;;;5.50;4.30;;;;;;;17.43;100.00;100025.09;109560;1253;65692;-71
2023/09/04 06:32:17;;;;;;;8.30;4.90;;;;;;;17.58;100.00;100028.93;109621;1252;59938;-70
2023/09/04 06:34:44;;;;;;;7.60;4.60;;;;;;;17.79;100.00;100030.70;109545;1253;64482;-71
2023/09/04 06:37:11;;;;;;;6.10;4.30;;;;;;;18.01;100.00;100036.87;109551;1255;58984;-71
2023/09/04 06:39:38;;;;;;;5.80;4.50;;;;;;;18.04;100.00;100035.55;109653;1252;58975;-71
2023/09/04 06:42:04;;;;;;;8.10;4.50;;;;;;;18.06;100.00;100034.80;109324;1251;67215;-71
2023/09/04 06:44:32;;;;;;;8.60;4.20;;;;;;;18.15;100.00;100036.95;109596;1252;60143;-70
2023/09/04 06:46:59;;;;;;;8.80;4.40;;;;;;;18.21;100.00;100036.62;109546;1252;62499;-70
2023/09/04 06:49:25;;;;;;;6.00;4.40;;;;;;;18.36;100.00;100030.89;109302;1252;59012;-70
2023/09/04 06:51:52;;;;;;;6.70;4.70;;;;;;;18.43;100.00;100032.98;109390;1252;179118;-70
2023/09/04 06:54:19;;;;;;;7.90;5.00;;;;;;;18.39;100.00;100043.56;109611;1251;64632;-70
2023/09/04 06:56:45;;;;;;;7.60;4.60;;;;;;;18.33;100.00;100043.78;109586;1253;58939;-70
2023/09/04 06:59:12;;;;;;;7.00;4.10;;;;;;;18.30;100.00;100037.73;109560;1252;62604;-70
2023/09/04 07:01:39;;;;;;;4.70;4.30;;;;;;;18.40;100.00;100030.23;109306;1254;59027;-70
2023/09/04 07:04:06;;;;;;;10.80;4.40;;;;;;;18.52;100.00;100032.64;109308;1253;59015;-70
2023/09/04 07:06:33;;;;;;;6.20;4.30;;;;;;;18.61;100.00;100029.92;109588;1252;65849;-70
2023/09/04 07:08:59;;;;;;;7.30;4.70;;;;;;;18.71;100.00;100029.39;109622;1253;58997;-70
2023/09/04 07:11:26;;;;;;;7.60;4.80;;;;;;;18.81;100.00;100029.35;109579;1252;64929;-71
2023/09/04 07:13:52;;;;;;;7.20;4.10;;;;;;;18.82;100.00;100029.98;109598;1251;59002;-70
2023/09/04 07:16:19;;;;;;;9.90;4.50;;;;;;;18.77;100.00;100034.69;109537;1252;58895;-70
2023/09/04 07:18:45;;;;;;;8.30;4.50;;;;;;;18.73;100.00;100036.99;109156;1252;66119;-71
2023/09/04 07:21:12;;;;;;;8.70;4.20;;;;;;;18.68;100.00;100043.33;109601;1252;58986;-70
2023/09/04 07:23:38;;;;;;;7.20;4.00;;;;;;;18.55;100.00;100052.15;109564;1254;59051;-70
2023/09/04 07:26:05;;;;;;;7.10;4.00;;;;;;;18.49;100.00;100064.19;109607;1252;59335;-70
2023/09/04 07:28:31;;;;;;;6.20;4.40;;;;;;;18.57;100.00;100067.71;109309;1252;59044;-70
2023/09/04 07:31:18;;;;;;;6.50;4.20;;;;;;;18.73;100.00;100064.18;109567;1252;58971;-70
2023/09/04 07:33:47;;;;;;;6.10;3.80;;;;;;;19.01;100.00;100064.18;109579;1252;60322;-70
2023/09/04 07:36:13;;;;;;;6.30;3.60;;;;;;;19.22;100.00;100072.30;109575;1252;62592;-70
2023/09/04 07:38:42;;;;;;;6.20;3.30;;;;;;;19.35;100.00;100075.84;109590;1252;58975;-70
2023/09/04 07:41:08;;;;;;;3.40;3.10;;;;;;;19.42;100.00;100077.43;109577;1253;59181;-70
2023/09/04 07:43:35;;;;;;;6.50;4.10;;;;;;;19.48;100.00;100075.23;109600;1252;64824;-70
2023/09/04 07:46:03;;;;;;;6.00;3.80;;;;;;;19.50;100.00;100075.83;109555;1251;59840;-70
2023/09/04 07:48:30;;;;;;;7.10;3.20;;;;;;;19.39;100.00;100078.92;109582;1251;62497;-70
2023/09/04 07:50:57;;;;;;;8.70;3.30;;;;;;;19.25;100.00;100080.34;109566;1253;58962;-70
2023/09/04 07:53:23;;;;;;;5.50;3.30;;;;;;;19.13;100.00;100082.48;109632;1253;59009;-71
2023/09/04 07:55:51;;;;;;;9.30;3.60;;;;;;;18.95;100.00;100083.96;109591;1253;66037;-71
2023/09/04 07:58:17;;;;;;;6.60;3.70;;;;;;;18.73;100.00;100088.84;109324;1252;60166;-71
2023/09/04 08:00:49;;;;;;;6.20;3.60;;;;;;;18.52;100.00;100093.51;109528;1251;73831;-71
2023/09/04 08:03:16;;;;;;;3.60;2.90;;;;;;;18.43;100.00;100092.61;109569;1252;58931;-71
2023/09/04 08:05:44;;;;;;;6.70;3.20;;;;;;;18.35;100.00;100089.10;109569;1252;59153;-71
2023/09/04 08:08:11;;;;;;;4.90;3.10;;;;;;;18.30;100.00;100091.98;109220;1252;65859;-71
2023/09/04 08:10:43;;;;;;;3.90;3.30;;;;;;;18.24;100.00;100093.59;109596;1252;60839;-71
2023/09/04 08:13:15;;;;;;;5.80;3.20;;;;;;;18.17;100.00;100100.62;109565;1254;64045;-70
2023/09/04 08:15:42;;;;;;;7.30;3.40;;;;;;;18.14;100.00;100111.17;109539;1255;58988;-71
2023/09/04 08:18:09;;;;;;;9.30;3.70;;;;;;;18.09;100.00;100116.42;109601;1253;59024;-71
2023/09/04 08:20:36;;;;;;;4.50;2.70;;;;;;;18.03;100.00;100119.41;109593;1252;67367;-70
2023/09/04 08:23:04;;;;;;;3.30;2.90;;;;;;;18.00;100.00;100117.13;109626;1253;60209;-70
2023/09/04 08:25:31;;;;;;;5.20;2.90;;;;;;;18.00;100.00;100117.30;109570;1252;64090;-70
2023/09/04 08:27:58;;;;;;;4.30;2.60;;;;;;;18.05;100.00;100113.84;109534;1255;59041;-71
2023/09/04 08:30:25;;;;;;;6.30;2.60;;;;;;;18.15;100.00;100111.35;109336;1252;58957;-70
2023/09/04 08:32:51;;;;;;;3.40;2.60;;;;;;;18.31;100.00;100106.34;109210;1251;66943;-70
2023/09/04 08:35:18;;;;;;;6.00;3.60;;;;;;;18.47;100.00;100108.08;109578;1252;59933;-70
2023/09/04 08:37:45;;;;;;;5.50;3.00;;;;;;;18.64;100.00;100105.08;109239;1253;59028;-71
2023/09/04 08:40:12;;;;;;;6.80;3.00;;;;;;;18.88;100.00;100103.98;109560;1252;58962;-71
2023/09/04 08:42:39;;;;;;;5.00;3.00;;;;;;;19.22;100.00;100100.96;109657;1252;59018;-71
2023/09/04 08:45:07;;;;;;;4.90;2.80;;;;;;;19.63;100.00;100098.34;109591;1253;66024;-71
2023/09/04 08:47:40;;;;;;;6.10;3.00;;;;;;;19.89;100.00;100097.52;109580;1255;68812;-71
2023/09/04 08:50:07;;;;;;;6.40;3.20;;;;;;;20.09;100.00;100098.13;109601;1252;64111;-71
2023/09/04 08:52:37;;;;;;;3.10;2.80;;;;;;;20.20;100.00;100093.50;109582;1252;59076;-71
2023/09/04 08:55:05;;;;;;;4.60;2.90;;;;;;;20.29;100.00;100092.15;109607;1252;58990;-71
2023/09/04 08:57:33;;;;;;;4.00;2.70;;;;;;;20.52;100.00;100089.94;109255;1254;65799;-71
2023/09/04 09:00:00;;;;;;;3.70;3.30;;;;;;;20.73;100.00;100092.18;109569;1252;59940;-71
2023/09/04 09:02:29;;;;;;;6.60;3.40;;;;;;;20.95;100.00;100094.10;109562;1252;65191;-71
2023/09/04 09:04:56;;;;;;;5.50;3.20;;;;;;;21.18;100.00;100093.39;109553;1253;58925;-71
2023/09/04 09:07:26;;;;;;;8.90;3.80;;;;;;;21.13;100.00;100091.85;109601;1252;59147;-71
2023/09/04 09:09:55;;;;;;;6.50;3.60;;;;;;;21.13;100.00;100091.71;109316;1252;66091;-71
2023/09/04 09:12:21;;;;;;;6.70;3.20;;;;;;;21.05;100.00;100088.42;109599;1253;60204;-71
2023/09/04 09:14:48;;;;;;;7.80;3.10;;;;;;;21.11;100.00;100087.77;109371;1254;64133;-71
2023/09/04 09:17:15;;;;;;;4.10;2.60;;;;;;;21.28;100.00;100089.17;109552;1252;59084;-71
2023/09/04 09:19:43;;;;;;;4.60;2.60;;;;;;;21.30;100.00;100093.55;109619;1252;58894;-71
2023/09/04 09:22:15;;;;;;;4.50;2.90;;;;;;;21.29;100.00;100094.03;109221;1252;64832;-71
2023/09/04 09:24:49;;;;;;;4.00;2.70;;;;;;;21.22;100.00;100091.41;109526;1251;59044;-72
2023/09/04 09:27:18;;;;;;;4.40;3.30;;;;;;;21.13;100.00;100094.02;109570;1252;63866;-70
2023/09/04 09:29:46;;;;;;;4.10;2.90;;;;;;;20.87;100.00;100089.39;109519;1252;59026;-70
2023/09/04 09:32:15;;;;;;;3.90;3.00;;;;;;;20.67;100.00;100089.84;109608;1253;58972;-71
2023/09/04 09:34:48;;;;;;;5.70;3.30;;;;;;;20.65;100.00;100083.67;109579;1252;64830;-70
2023/09/04 09:37:15;;;;;;;4.10;2.80;;;;;;;20.68;100.00;100083.59;109608;1253;60172;-70
2023/09/04 09:39:42;;;;;;;4.80;2.70;;;;;;;20.71;100.00;100080.80;109555;1253;62502;-71
2023/09/04 09:42:08;;;;;;;6.10;3.20;;;;;;;20.73;100.00;100075.23;109551;1254;59032;-71
2023/09/04 09:44:35;;;;;;;6.50;4.00;;;;;;;20.87;100.00;100071.71;109560;1252;58931;-71
2023/09/04 09:47:02;;;;;;;5.10;3.50;;;;;;;21.18;100.00;100072.30;109289;1254;64633;-71
2023/09/04 09:49:30;;;;;;;5.10;3.10;;;;;;;21.30;100.00;100073.14;109601;1252;59024;-71
2023/09/04 09:51:56;;;;;;;3.90;2.90;;;;;;;21.39;100.00;100071.02;109555;1252;62866;-71
2023/09/04 09:54:52;;;;;;;3.90;3.50;;;;;;;21.56;100.00;100076.41;109562;1253;58953;-71
2023/09/04 09:57:20;;;;;;;5.30;4.60;;;;;;;21.68;100.00;100078.22;108886;1263;58905;-71
2023/09/04 09:59:49;;;;;;;5.30;4.00;;;;;;;21.80;100.00;100080.27;108815;1260;64688;-71
2023/09/04 10:02:24;;;;;;;8.30;4.40;;;;;;;21.87;100.00;100082.38;108938;1261;59951;-71
2023/09/04 10:04:51;;;;;;;5.10;4.30;;;;;;;21.91;100.00;100075.92;108918;1261;63757;-71
2023/09/04 10:07:21;;;;;;;5.70;4.20;;;;;;;21.99;100.00;100068.90;108793;1260;59168;-71
2023/09/04 10:09:59;;;;;;;6.40;3.80;;;;;;;22.04;100.00;100058.75;108924;1261;59045;-71
2023/09/04 10:12:33;;;;;;;4.30;3.90;;;;;;;22.01;100.00;100063.03;108914;1262;66241;-71
2023/09/04 10:15:00;;;;;;;6.50;4.30;;;;;;;22.01;100.00;100066.48;108942;1260;59119;-71
2023/09/04 10:17:35;;;;;;;6.20;3.80;;;;;;;22.15;100.00;100063.47;108899;1260;62900;-71
2023/09/04 10:20:05;;;;;;;4.90;3.70;;;;;;;22.22;100.00;100064.88;108896;1260;59039;-71
2023/09/04 10:22:39;;;;;;;8.10;4.90;;;;;;;22.12;100.00;100065.61;108817;1260;59043;-71
2023/09/04 10:25:15;;;;;;;5.50;4.80;;;;;;;22.14;100.00;100066.28;108775;1262;66150;-71
2023/09/04 10:27:50;;;;;;;6.40;5.70;;;;;;;22.28;100.00;100064.41;108900;1262;59952;-71
2023/09/04 10:30:18;;;;;;;7.10;6.40;;;;;;;22.39;100.00;100061.20;108819;1260;64061;-71
2023/09/04 10:32:45;;;;;;;7.60;6.80;;;;;;;22.44;100.00;100058.16;108939;1261;59434;-71
2023/09/04 10:35:12;;;;;;;7.20;6.60;;;;;;;22.51;100.00;100060.42;109589;1253;58981;-71
2023/09/04 10:37:39;;;;;;;6.60;6.10;;;;;;;22.63;100.00;100060.21;109267;1254;64844;-71
2023/09/04 10:40:10;;;;;;;9.20;8.30;;;;;;;22.82;100.00;100056.83;109582;1254;60182;-71
2023/09/04 10:42:41;;;;;;;9.90;8.80;;;;;;;23.00;100.00;100054.47;109555;1254;63746;-71
2023/09/04 10:45:12;;;;;;;9.40;8.50;;;;;;;23.21;100.00;100053.28;109521;1253;59014;-71
2023/09/04 10:47:47;;;;;;;9.10;8.20;;;;;;;23.46;100.00;100049.95;109597;1252;58937;-71
2023/09/04 10:50:36;;;;;;;9.30;8.40;;;;;;;23.73;100.00;100045.12;109628;1252;66057;-71
2023/09/04 10:53:05;;;;;;;9.00;8.20;;;;;;;23.75;100.00;100050.05;109591;1252;60207;-72
2023/09/04 10:55:33;;;;;;;9.40;8.50;;;;;;;23.60;100.00;100049.77;109558;1253;63782;-72
2023/09/04 10:58:05;;;;;;;8.50;7.70;;;;;;;23.43;100.00;100047.21;109615;1252;59026;-71
2023/09/04 11:00:36;;;;;;;9.30;8.40;;;;;;;23.24;100.00;100047.72;109572;1251;59001;-72
2023/09/04 11:03:15;;;;;;;7.20;6.60;;;;;;;23.18;100.00;100049.52;109576;1251;66086;-71
2023/09/04 11:06:07;;;;;;;7.50;5.20;;;;;;;23.13;100.00;100051.05;109571;1254;60207;-70
2023/09/04 11:08:35;;;;;;;4.80;4.40;;;;;;;23.17;100.00;100048.90;109597;1252;62879;-70
2023/09/04 11:11:04;;;;;;;7.10;5.20;;;;;;;23.32;100.00;100047.21;109619;1254;58946;-69
2023/09/04 11:13:38;;;;;;;5.80;5.30;;;;;;;23.45;100.00;100036.79;109638;1253;58872;-70